Time;durP1;ratioP1;P1;durP2;ratioP2;P2;SDS_P1;SDS_P2;PMS_P1;PMS_P2;Temp;Humidity;BMP_temperature;BMP_pressure;BME280_temperature;BME280_humidity;BME280_pressure;Samples;Min_cycle;Max_cycle;Signal;HPM_P1;HPM_P2
2023/08/17 00:00:19;;;;;;;;;;;;;;;18.81;100.00;101952.06;5090802;28;20116;-37
2023/08/17 00:02:44;;;;;;;2.75;1.30;;;;;;;18.61;100.00;101954.59;5090635;28;19908;-37
2023/08/17 00:05:09;;;;;;;;;;;;;;;18.78;100.00;101964.38;5090402;28;20029;-37
2023/08/17 00:07:35;;;;;;;2.83;1.30;;;;;;;18.64;100.00;101957.66;5089889;28;19912;-37
2023/08/17 00:10:01;;;;;;;2.75;0.93;;;;;;;18.71;100.00;101963.75;5082066;28;20309;-36
2023/08/17 00:12:26;;;;;;;3.63;1.30;;;;;;;18.73;100.00;101969.81;5076394;28;20029;-37
2023/08/17 00:14:52;;;;;;;;;;;;;;;18.80;100.00;101955.91;5076592;28;20028;-37
2023/08/17 00:17:17;;;;;;;3.22;1.20;;;;;;;18.80;100.00;101960.56;5076222;28;19970;-37
2023/08/17 00:19:43;;;;;;;3.53;1.20;;;;;;;18.78;100.00;101956.16;5076978;28;20082;-37
2023/08/17 00:22:08;;;;;;;;;;;;;;;18.84;100.00;101950.72;5076912;28;20070;-37
2023/08/17 00:24:34;;;;;;;6.60;1.40;;;;;;;18.75;100.00;101956.69;5076927;28;20229;-37
2023/08/17 00:26:59;;;;;;;3.50;1.30;;;;;;;18.64;100.00;101951.31;5076169;28;20449;-38
2023/08/17 00:29:24;;;;;;;3.63;1.48;;;;;;;18.70;100.00;101947.59;5076324;28;20024;-38
2023/08/17 00:31:50;;;;;;;;;;;;;;;18.78;100.00;101947.09;5077006;28;20032;-36
2023/08/17 00:34:15;;;;;;;4.00;1.60;;;;;;;18.64;100.00;101952.16;5076178;28;19905;-36
2023/08/17 00:36:40;;;;;;;;;;;;;;;18.76;100.00;101941.91;5076659;28;20024;-37
2023/08/17 00:39:06;;;;;;;2.80;1.40;;;;;;;18.69;100.00;101951.41;5075498;28;19916;-38
2023/08/17 00:41:31;;;;;;;4.75;1.25;;;;;;;18.58;100.00;101941.41;5075856;28;20068;-38
2023/08/17 00:43:57;;;;;;;4.55;1.30;;;;;;;18.56;100.00;101947.13;5075753;28;20020;-38
2023/08/17 00:46:23;;;;;;;;;;;;;;;18.69;100.00;101955.00;5075916;28;20036;-38
2023/08/17 00:48:48;;;;;;;3.85;1.35;;;;;;;18.63;100.00;101955.13;5075571;28;19904;-38
2023/08/17 00:51:14;;;;;;;;;;;;;;;18.76;100.00;101961.06;5076646;28;20034;-38
2023/08/17 00:53:39;;;;;;;3.15;1.35;;;;;;;18.56;100.00;101962.75;5075739;28;20024;-37
2023/08/17 00:56:05;;;;;;;3.30;1.40;;;;;;;18.50;100.00;101954.47;5075815;28;20532;-38
2023/08/17 00:58:31;;;;;;;2.80;1.10;;;;;;;18.45;100.00;101948.94;5075426;28;20040;-38
2023/08/17 01:00:56;;;;;;;3.85;1.50;;;;;;;18.51;100.00;101958.03;5075130;28;20415;-38
2023/08/17 01:03:23;;;;;;;2.47;1.23;;;;;;;18.42;100.00;101951.38;5075403;28;20020;-36
2023/08/17 01:05:48;;;;;;;3.00;1.27;;;;;;;18.41;100.00;101952.44;5075273;28;20416;-36
2023/08/17 01:08:13;;;;;;;;;;;;;;;18.63;100.00;101957.88;5075998;28;20111;-37
2023/08/17 01:10:58;;;;;;;4.60;1.23;;;;;;;18.56;100.00;101958.09;5074975;28;20276;-36
2023/08/17 01:13:38;;;;;;;4.30;1.33;;;;;;;18.51;100.00;101955.31;5075756;28;20262;-36
2023/08/17 01:16:09;;;;;;;5.82;1.90;;;;;;;18.52;100.00;101954.22;5074880;28;20025;-36
2023/08/17 01:18:37;;;;;;;3.40;1.48;;;;;;;18.55;100.00;101959.19;5075286;28;20453;-36
2023/08/17 01:21:06;;;;;;;4.80;1.45;;;;;;;18.56;100.00;101958.09;5074427;28;20031;-36
2023/08/17 01:23:32;;;;;;;3.63;1.30;;;;;;;18.51;100.00;101941.59;5075714;28;20036;-36
2023/08/17 01:25:57;;;;;;;2.40;1.20;;;;;;;18.62;100.00;101948.00;5074899;28;20025;-36
2023/08/17 01:28:23;;;;;;;2.75;1.25;;;;;;;18.50;100.00;101959.13;5074557;28;20377;-36
2023/08/17 01:31:08;;;;;;;4.93;1.13;;;;;;;18.59;100.00;101945.78;5074810;28;20028;-36
2023/08/17 01:33:40;;;;;;;3.58;1.10;;;;;;;18.49;100.00;101941.84;5074466;28;20028;-36
2023/08/17 01:36:20;;;;;;;4.60;1.80;;;;;;;18.50;100.00;101942.69;5074881;28;20096;-36
2023/08/17 01:38:46;;;;;;;4.95;1.30;;;;;;;18.48;100.00;101950.31;5074815;28;20059;-36
2023/08/17 01:41:13;;;;;;;5.82;1.65;;;;;;;18.39;100.00;101936.25;5074605;28;20032;-36
2023/08/17 01:43:41;;;;;;;4.35;1.30;;;;;;;18.46;100.00;101944.28;5074539;28;20431;-36
2023/08/17 01:46:07;;;;;;;4.05;1.42;;;;;;;18.41;100.00;101942.31;5074566;28;20024;-36
2023/08/17 01:48:32;;;;;;;4.18;1.52;;;;;;;18.35;100.00;101945.25;5074777;28;20032;-37
2023/08/17 01:50:58;;;;;;;;;;;;;;;18.47;100.00;101943.19;5075502;28;20024;-37
2023/08/17 01:53:23;;;;;;;6.00;1.70;;;;;;;18.20;100.00;101927.56;5074754;28;20028;-37
2023/08/17 01:55:48;;;;;;;;;;;;;;;18.31;100.00;101939.47;5074429;28;20324;-36
2023/08/17 01:58:14;;;;;;;4.63;1.50;;;;;;;18.21;100.00;101940.19;5074174;28;19913;-36
2023/08/17 02:00:39;;;;;;;6.80;1.50;;;;;;;18.12;100.00;101928.03;5075045;28;20032;-36
2023/08/17 02:03:04;;;;;;;;;;;;;;;18.30;100.00;101939.72;5075543;28;20036;-36
2023/08/17 02:05:29;;;;;;;7.28;1.90;;;;;;;18.17;100.00;101939.03;5074387;28;19916;-36
2023/08/17 02:07:55;;;;;;;;;;;;;;;18.22;100.00;101936.34;5075127;28;20055;-36
2023/08/17 02:10:20;;;;;;;3.25;1.40;;;;;;;18.13;100.00;101937.88;5073839;28;19966;-36
2023/08/17 02:12:46;;;;;;;;;;;;;;;18.22;100.00;101939.09;5074734;28;20024;-36
2023/08/17 02:15:12;;;;;;;5.95;1.67;;;;;;;18.05;100.00;101946.53;5074297;28;19935;-36
2023/08/17 02:17:37;;;;;;;;;;;;;;;18.11;100.00;101942.78;5074638;28;20445;-36
2023/08/17 02:20:04;;;;;;;4.10;1.30;;;;;;;17.88;100.00;101946.59;5073671;28;19915;-36
2023/08/17 02:22:29;;;;;;;4.43;1.48;;;;;;;17.87;100.00;101946.84;5073902;28;20292;-36
2023/08/17 02:24:54;;;;;;;;;;;;;;;17.97;100.00;101938.78;5074572;28;20024;-36
2023/08/17 02:27:19;;;;;;;5.07;1.55;;;;;;;17.76;100.00;101945.88;5074082;28;19955;-36
2023/08/17 02:29:45;;;;;;;;;;;;;;;17.92;100.00;101944.19;5073980;28;20376;-36
2023/08/17 02:32:10;;;;;;;4.27;1.60;;;;;;;17.72;100.00;101947.44;5073610;28;20225;-36
2023/08/17 02:34:35;;;;;;;;;;;;;;;17.86;100.00;101953.38;5074176;28;20262;-36
2023/08/17 02:37:01;;;;;;;3.20;1.20;;;;;;;17.72;100.00;101931.84;5073834;28;19962;-36
2023/08/17 02:39:26;;;;;;;;;;;;;;;17.90;100.00;101938.13;5074615;28;20297;-36
2023/08/17 02:41:51;;;;;;;1.90;0.90;;;;;;;17.84;100.00;101936.41;5074281;28;19912;-36
2023/08/17 02:44:17;;;;;;;;;;;;;;;17.93;100.00;101937.63;5074325;28;20078;-36
2023/08/17 02:46:42;;;;;;;8.43;1.53;;;;;;;17.74;100.00;101934.34;5073632;28;20272;-36
2023/08/17 02:49:07;;;;;;;;;;;;;;;17.88;100.00;101940.28;5074791;28;20598;-37
2023/08/17 02:51:33;;;;;;;5.57;1.30;;;;;;;17.79;100.00;101930.88;5073880;28;19909;-37
2023/08/17 02:53:58;;;;;;;;;;;;;;;17.84;100.00;101930.94;5073610;28;20279;-37
2023/08/17 02:56:23;;;;;;;3.13;1.53;;;;;;;17.62;100.00;101936.34;5073308;28;20007;-37
2023/08/17 02:58:48;;;;;;;;;;;;;;;17.79;100.00;101939.06;5073915;28;20345;-37
2023/08/17 03:01:14;;;;;;;4.63;1.50;;;;;;;17.62;100.00;101936.34;5073173;28;19954;-37
2023/08/17 03:03:39;;;;;;;;;;;;;;;17.65;100.00;101938.56;5073904;28;20290;-37
2023/08/17 03:06:05;;;;;;;3.33;1.40;;;;;;;17.51;100.00;101938.09;5073432;28;19916;-37
2023/08/17 03:08:30;;;;;;;5.43;1.42;;;;;;;17.40;100.00;101933.56;5073418;28;20036;-36
2023/08/17 03:10:55;;;;;;;;;;;;;;;17.57;100.00;101936.25;5073809;28;20028;-37
2023/08/17 03:13:20;;;;;;;4.00;1.50;;;;;;;17.27;100.00;101934.72;5073627;28;20376;-37
2023/08/17 03:15:46;;;;;;;;;;;;;;;17.40;100.00;101933.56;5073445;28;20286;-37
2023/08/17 03:18:11;;;;;;;4.73;1.53;;;;;;;17.25;100.00;101921.31;5072965;28;19919;-37
2023/08/17 03:20:36;;;;;;;;;;;;;;;17.40;100.00;101928.09;5073943;28;20278;-37
2023/08/17 03:23:06;;;;;;;4.60;1.42;;;;;;;17.27;100.00;101928.41;5073569;28;20363;-37
2023/08/17 03:25:31;;;;;;;3.05;1.48;;;;;;;17.32;100.00;101933.97;5073178;28;20395;-37
2023/08/17 03:27:56;;;;;;;;;;;;;;;17.40;100.00;101934.38;5073930;28;20107;-37
2023/08/17 03:30:22;;;;;;;3.70;1.40;;;;;;;17.28;100.00;101930.94;5073481;28;19908;-36
2023/08/17 03:32:47;;;;;;;;;;;;;;;17.39;100.00;101931.91;5073868;28;20311;-36
2023/08/17 03:35:13;;;;;;;4.20;2.07;;;;;;;17.33;100.00;101927.44;5073145;28;19908;-37
2023/08/17 03:37:38;;;;;;;;;;;;;;;17.40;100.00;101922.63;5073470;28;20329;-36
2023/08/17 03:40:04;;;;;;;3.15;1.52;;;;;;;17.23;100.00;101923.47;5072766;28;19915;-36
2023/08/17 03:42:29;;;;;;;;;;;;;;;17.33;100.00;101927.44;5073869;28;20028;-37
2023/08/17 03:44:55;;;;;;;5.80;2.10;;;;;;;17.14;100.00;101916.75;5074624;28;20404;-37
2023/08/17 03:47:20;;;;;;;;;;;;;;;17.28;100.00;101919.16;5076973;28;20727;-37
2023/08/17 03:49:46;;;;;;;5.20;1.53;;;;;;;17.15;100.00;101910.22;5076413;28;19909;-37
2023/08/17 03:52:12;;;;;;;4.90;2.00;;;;;;;16.91;100.00;101909.53;5077323;28;20255;-36
2023/08/17 03:54:37;;;;;;;;;;;;;;;17.10;100.00;101912.88;5076776;28;20494;-37
2023/08/17 03:57:03;;;;;;;2.93;1.40;;;;;;;17.01;100.00;101913.53;5076353;28;19908;-37
2023/08/17 03:59:28;;;;;;;;;;;;;;;17.09;100.00;101916.69;5077600;28;20326;-37
2023/08/17 04:01:53;;;;;;;3.17;1.20;;;;;;;16.99;100.00;101922.81;5076556;28;19919;-37
2023/08/17 04:04:19;;;;;;;;;;;;;;;17.06;100.00;101930.81;5077241;28;20021;-37
2023/08/17 04:06:44;;;;;;;5.05;1.67;;;;;;;16.95;100.00;101929.84;5076719;28;19963;-37
2023/08/17 04:09:09;;;;;;;;;;;;;;;17.06;100.00;101932.75;5076870;28;20028;-37
2023/08/17 04:11:36;;;;;;;2.60;1.40;;;;;;;17.05;100.00;101939.28;5076152;28;19908;-37
2023/08/17 04:14:01;;;;;;;2.53;1.40;;;;;;;16.96;100.00;101938.84;5076243;28;20274;-36
2023/08/17 04:16:26;;;;;;;;;;;;;;;17.07;100.00;101940.69;5077036;28;20028;-37
2023/08/17 04:18:51;;;;;;;2.83;1.27;;;;;;;16.88;100.00;101941.97;5076116;28;19912;-36
2023/08/17 04:21:17;;;;;;;;;;;;;;;17.05;100.00;101944.75;5076419;28;20251;-37
2023/08/17 04:23:42;;;;;;;4.50;1.60;;;;;;;16.89;100.00;101946.41;5076176;28;19931;-37
2023/08/17 04:26:07;;;;;;;;;;;;;;;17.01;100.00;101955.34;5076841;28;20441;-37
2023/08/17 04:28:33;;;;;;;4.43;1.50;;;;;;;16.93;100.00;101955.72;5076107;28;20325;-37
2023/08/17 04:30:58;;;;;;;;;;;;;;;17.04;100.00;101963.06;5076242;28;20765;-36
2023/08/17 04:33:23;;;;;;;4.93;1.45;;;;;;;16.99;100.00;101960.22;5076207;28;20274;-37
2023/08/17 04:35:49;;;;;;;;;;;;;;;17.10;100.00;101962.06;5076033;28;20025;-37
2023/08/17 04:38:14;;;;;;;3.88;1.50;;;;;;;16.96;100.00;101957.97;5076415;28;19919;-36
2023/08/17 04:40:39;;;;;;;;;;;;;;;17.11;100.00;101962.88;5075921;28;20028;-37
2023/08/17 04:43:04;;;;;;;5.25;1.73;;;;;;;17.01;100.00;101958.06;5076117;28;19955;-37
2023/08/17 04:45:30;;;;;;;;;;;;;;;17.14;100.00;101955.03;5076502;28;20350;-37
2023/08/17 04:47:55;;;;;;;4.20;1.40;;;;;;;16.93;100.00;101944.81;5076016;28;19904;-37
2023/08/17 04:50:21;;;;;;;;;;;;;;;17.13;100.00;101950.66;5076416;28;20261;-36
2023/08/17 04:52:46;;;;;;;3.78;1.70;;;;;;;17.07;100.00;101951.59;5075621;28;19955;-36
2023/08/17 04:55:12;;;;;;;;;;;;;;;17.19;100.00;101946.09;5075859;28;20111;-37
2023/08/17 04:57:38;;;;;;;3.30;1.63;;;;;;;17.06;100.00;101949.97;5075932;28;19957;-36
2023/08/17 05:00:04;;;;;;;;;;;;;;;17.17;100.00;101950.94;5076389;28;20512;-36
2023/08/17 05:02:30;;;;;;;3.75;1.77;;;;;;;17.01;100.00;101952.59;5075975;28;19916;-37
2023/08/17 05:04:55;;;;;;;4.53;1.55;;;;;;;17.01;100.00;101947.13;5075031;28;20445;-37
2023/08/17 05:07:21;;;;;;;;;;;;;;;17.19;100.00;101948.81;5076356;28;20012;-36
2023/08/17 05:09:46;;;;;;;4.27;1.60;;;;;;;17.05;100.00;101948.31;5075015;28;20003;-37
2023/08/17 05:12:11;;;;;;;;;;;;;;;17.20;100.00;101943.09;5075599;28;20255;-37
2023/08/17 05:14:37;;;;;;;3.42;1.67;;;;;;;17.17;100.00;101937.28;5074811;28;19914;-36
2023/08/17 05:17:02;;;;;;;;;;;;;;;17.17;100.00;101938.09;5075859;28;20462;-37
2023/08/17 05:19:27;;;;;;;3.58;1.55;;;;;;;16.97;100.00;101924.94;5074426;28;19908;-37
2023/08/17 05:21:53;;;;;;;;;;;;;;;17.11;100.00;101928.19;5075517;28;20029;-36
2023/08/17 05:24:20;;;;;;;4.57;1.40;;;;;;;17.06;100.00;101940.94;5074626;28;19950;-37
2023/08/17 05:26:45;;;;;;;3.45;1.70;;;;;;;17.01;100.00;101938.94;5074570;28;20016;-36
2023/08/17 05:29:11;;;;;;;;;;;;;;;17.14;100.00;101940.53;5075533;28;20066;-36
2023/08/17 05:31:36;;;;;;;6.50;1.80;;;;;;;16.99;100.00;101928.28;5074444;28;19947;-37
2023/08/17 05:34:02;;;;;;;;;;;;;;;17.07;100.00;101934.38;5074975;28;20270;-37
2023/08/17 05:36:27;;;;;;;5.85;1.58;;;;;;;17.01;100.00;101933.47;5074827;28;19904;-36
2023/08/17 05:38:52;;;;;;;;;;;;;;;17.08;100.00;101934.16;5074631;28;20056;-37
2023/08/17 05:41:18;;;;;;;3.58;1.48;;;;;;;17.10;100.00;101940.19;5074193;28;19915;-37
2023/08/17 05:43:43;;;;;;;;;;;;;;;17.18;100.00;101931.59;5075074;28;20024;-37
2023/08/17 05:46:08;;;;;;;4.80;1.40;;;;;;;17.15;100.00;101939.44;5074430;28;19991;-37
2023/08/17 05:48:34;;;;;;;;;;;;;;;17.26;100.00;101944.00;5075188;28;20391;-36
2023/08/17 05:50:59;;;;;;;5.00;1.90;;;;;;;17.08;100.00;101938.78;5074774;28;20268;-37
2023/08/17 05:53:24;;;;;;;;;;;;;;;17.20;100.00;101954.03;5075620;28;20017;-37
2023/08/17 05:55:49;;;;;;;4.93;1.60;;;;;;;17.12;100.00;101948.13;5074675;28;20007;-36
2023/08/17 05:58:15;;;;;;;;;;;;;;;17.27;100.00;101950.28;5075001;28;20266;-37
2023/08/17 06:00:41;;;;;;;4.47;1.85;;;;;;;17.19;100.00;101955.09;5073930;28;19909;-36
2023/08/17 06:03:07;;;;;;;;;;;;;;;17.25;100.00;101956.84;5075504;28;20028;-36
2023/08/17 06:05:32;;;;;;;5.97;1.98;;;;;;;17.16;100.00;101952.03;5073892;28;19916;-37
2023/08/17 06:07:58;;;;;;;;;;;;;;;17.39;100.00;101964.72;5074701;28;20062;-37
2023/08/17 06:10:26;;;;;;;4.68;1.55;;;;;;;17.46;100.00;101959.88;5074065;28;19912;-37
2023/08/17 06:12:55;;;;;;;4.05;1.75;;;;;;;17.51;100.00;101974.47;5073837;28;20029;-37
2023/08/17 06:15:22;;;;;;;5.63;1.58;;;;;;;17.68;100.00;101968.16;5074549;28;20392;-37
2023/08/17 06:17:49;;;;;;;6.90;1.80;;;;;;;17.65;100.00;101976.88;5073724;28;20036;-37
2023/08/17 06:20:15;;;;;;;4.38;1.65;;;;;;;17.60;100.00;101974.06;5074037;28;20517;-37
2023/08/17 06:22:40;;;;;;;;;;;;;;;17.69;100.00;101981.59;5074365;28;20102;-37
2023/08/17 06:25:06;;;;;;;4.97;1.60;;;;;;;17.63;100.00;101974.38;5073786;28;19904;-37
2023/08/17 06:27:32;;;;;;;;;;;;;;;17.72;100.00;101963.84;5075108;28;20716;-37
2023/08/17 06:29:57;;;;;;;4.75;1.63;;;;;;;17.58;100.00;101966.09;5073759;28;19905;-37
2023/08/17 06:32:22;;;;;;;5.30;1.90;;;;;;;17.53;100.00;101965.22;5074147;28;20029;-37
2023/08/17 06:34:47;;;;;;;;;;;;;;;17.68;100.00;101970.91;5074177;28;20440;-37
2023/08/17 06:37:13;;;;;;;3.80;1.77;;;;;;;17.59;100.00;101965.03;5073711;28;19904;-37
2023/08/17 06:39:38;;;;;;;;;;;;;;;17.80;100.00;101965.34;5074292;28;20271;-36
2023/08/17 06:42:04;;;;;;;4.22;1.60;;;;;;;17.67;100.00;101959.13;5074270;28;20265;-36
2023/08/17 06:44:30;;;;;;;;;;;;;;;17.89;100.00;101972.03;5074311;28;20024;-37
2023/08/17 06:46:56;;;;;;;6.78;1.80;;;;;;;17.82;100.00;101960.47;5073951;28;19908;-37
2023/08/17 06:49:21;;;;;;;;;;;;;;;18.06;100.00;101967.38;5074041;28;20373;-38
2023/08/17 06:51:47;;;;;;;5.40;1.95;;;;;;;18.12;100.00;101960.03;5073571;28;19953;-38
2023/08/17 06:54:13;;;;;;;4.40;1.67;;;;;;;18.22;100.00;101973.84;5073520;28;20073;-38
2023/08/17 06:56:38;;;;;;;4.70;1.90;;;;;;;18.12;100.00;101971.00;5074103;28;20028;-38
2023/08/17 06:59:04;;;;;;;;;;;;;;;18.30;100.00;101967.09;5073806;28;20387;-38
2023/08/17 07:01:29;;;;;;;4.45;2.00;;;;;;;18.25;100.00;101957.75;5074365;28;20351;-38
2023/08/17 07:03:55;;;;;;;;;;;;;;;18.42;100.00;101973.28;5074382;28;20029;-38
2023/08/17 07:06:21;;;;;;;4.28;1.52;;;;;;;18.38;100.00;101972.13;5073410;28;19908;-38
2023/08/17 07:08:46;;;;;;;;;;;;;;;18.45;100.00;101979.06;5073813;28;20029;-38
2023/08/17 07:11:11;;;;;;;6.78;2.17;;;;;;;18.34;100.00;101971.81;5073981;28;19913;-38
2023/08/17 07:13:37;;;;;;;;;;;;;;;18.43;100.00;101975.75;5073342;28;20021;-37
2023/08/17 07:16:02;;;;;;;3.10;1.60;;;;;;;18.31;100.00;101968.78;5073617;28;19951;-38
2023/08/17 07:18:27;;;;;;;;;;;;;;;18.39;100.00;101980.06;5074280;28;20747;-38
2023/08/17 07:20:53;;;;;;;4.93;1.90;;;;;;;18.16;100.00;101964.75;5076445;28;20385;-38
2023/08/17 07:23:18;;;;;;;;;;;;;;;18.37;100.00;101976.78;5078046;28;20633;-38
2023/08/17 07:25:44;;;;;;;6.07;1.93;;;;;;;18.26;100.00;101973.09;5077006;28;20411;-38
2023/08/17 07:28:09;;;;;;;;;;;;;;;18.46;100.00;101974.41;5078165;28;20564;-38
2023/08/17 07:30:52;;;;;;;4.15;1.40;;;;;;;18.42;100.00;101976.84;5077216;28;19915;-38
2023/08/17 07:33:17;;;;;;;6.03;1.90;;;;;;;18.43;100.00;101977.66;5077435;28;20024;-38
2023/08/17 07:35:43;;;;;;;;;;;;;;;18.56;100.00;101970.97;5078111;28;20191;-38
2023/08/17 07:38:08;;;;;;;8.60;1.85;;;;;;;18.51;100.00;101967.09;5077293;28;19917;-38
2023/08/17 07:40:33;;;;;;;4.68;1.90;;;;;;;18.49;100.00;101977.44;5076964;28;20017;-38
2023/08/17 07:42:58;;;;;;;;;;;;;;;18.65;100.00;101973.00;5077970;28;20035;-37
2023/08/17 07:45:24;;;;;;;6.73;1.80;;;;;;;18.61;100.00;101965.53;5077213;28;19904;-38
2023/08/17 07:47:49;;;;;;;;;;;;;;;18.80;100.00;101975.09;5078155;28;20333;-38
2023/08/17 07:50:14;;;;;;;4.27;1.87;;;;;;;18.74;100.00;101973.41;5076812;28;19911;-38
2023/08/17 07:52:40;;;;;;;;;;;;;;;18.83;100.00;101966.34;5077479;28;20247;-37
2023/08/17 07:55:05;;;;;;;4.13;1.70;;;;;;;18.78;100.00;101967.09;5076459;28;20248;-38
2023/08/17 07:57:31;;;;;;;;;;;;;;;18.94;100.00;101968.09;5077322;28;20313;-38
2023/08/17 07:59:56;;;;;;;5.55;2.65;;;;;;;18.84;100.00;101972.63;5077057;28;19912;-38
2023/08/17 08:02:21;;;;;;;4.50;1.83;;;;;;;19.02;100.00;101972.28;5076319;28;20111;-36
2023/08/17 08:04:46;;;;;;;;;;;;;;;19.08;100.00;101979.47;5076914;28;20028;-36
2023/08/17 08:07:12;;;;;;;5.07;2.10;;;;;;;19.08;100.00;101975.88;5076829;28;19905;-36
2023/08/17 08:09:37;;;;;;;;;;;;;;;19.29;100.00;101983.22;5076468;28;20266;-36
2023/08/17 08:12:03;;;;;;;5.33;2.27;;;;;;;19.23;100.00;101987.84;5076605;28;19911;-37
2023/08/17 08:14:29;;;;;;;;;;;;;;;19.26;100.00;101984.56;5076783;28;20262;-36
2023/08/17 08:16:54;;;;;;;4.72;1.95;;;;;;;19.27;100.00;101979.88;5076232;28;19904;-36
2023/08/17 08:19:19;;;;;;;;;;;;;;;19.40;100.00;101968.47;5076237;28;20020;-36
2023/08/17 08:21:45;;;;;;;6.07;2.20;;;;;;;19.11;100.00;101980.84;5077093;28;19915;-36
2023/08/17 08:24:10;;;;;;;4.50;1.75;;;;;;;19.08;100.00;101975.88;5075905;28;20103;-36
2023/08/17 08:26:35;;;;;;;5.00;1.70;;;;;;;19.07;100.00;101960.53;5076789;28;20021;-36
2023/08/17 08:29:01;;;;;;;4.07;2.15;;;;;;;19.25;100.00;101977.41;5076062;28;20024;-36
2023/08/17 08:31:26;;;;;;;3.95;1.75;;;;;;;19.34;100.00;101979.69;5076083;28;20020;-37
2023/08/17 08:33:52;;;;;;;3.97;1.90;;;;;;;19.39;100.00;101968.75;5076782;28;20025;-37
2023/08/17 08:36:18;;;;;;;5.70;2.30;;;;;;;19.22;100.00;101975.19;5075938;28;20027;-36
2023/08/17 08:38:43;;;;;;;;;;;;;;;19.42;100.00;101988.25;5077063;28;20028;-36
2023/08/17 08:41:09;;;;;;;5.27;2.03;;;;;;;19.17;100.00;101983.38;5076128;28;19955;-36
2023/08/17 08:43:35;;;;;;;;;;;;;;;19.28;100.00;101982.38;5076458;28;20324;-36
2023/08/17 08:46:01;;;;;;;4.70;1.88;;;;;;;19.18;100.00;101986.94;5076587;28;20245;-36
2023/08/17 08:48:27;;;;;;;6.97;1.90;;;;;;;19.00;100.00;101980.75;5076514;28;20044;-36
2023/08/17 08:50:54;;;;;;;;;;;;;;;19.11;100.00;101986.34;5075796;28;20541;-37
2023/08/17 08:53:27;;;;;;;8.27;2.67;;;;;;;18.95;100.00;101982.63;5076203;28;19909;-37
2023/08/17 08:55:58;;;;;;;5.57;2.03;;;;;;;18.88;100.00;101965.56;5075924;28;20078;-37
2023/08/17 08:58:25;;;;;;;7.72;2.15;;;;;;;18.94;100.00;101970.03;5076138;28;20029;-37
2023/08/17 09:00:52;;;;;;;5.45;2.17;;;;;;;18.90;100.00;101975.19;5076208;28;20040;-38
2023/08/17 09:03:20;;;;;;;5.55;2.20;;;;;;;18.82;100.00;101964.69;5075531;28;20036;-38
2023/08/17 09:05:49;;;;;;;7.93;2.65;;;;;;;18.64;100.00;101968.59;5075341;28;20107;-38
2023/08/17 09:08:21;;;;;;;11.23;3.05;;;;;;;18.60;100.00;101969.38;5075348;28;20024;-37
2023/08/17 09:10:47;;;;;;;5.57;2.67;;;;;;;18.50;100.00;101959.97;5075050;28;20103;-37
2023/08/17 09:13:12;;;;;;;;;;;;;;;18.63;100.00;101971.56;5076319;28;20139;-37
2023/08/17 09:15:37;;;;;;;6.60;2.50;;;;;;;18.52;100.00;101967.91;5075222;28;19909;-37
2023/08/17 09:18:07;;;;;;;8.38;2.60;;;;;;;18.44;100.00;101960.13;5075662;28;20429;-37
2023/08/17 09:20:44;;;;;;;5.60;2.50;;;;;;;18.46;100.00;101963.47;5075094;28;20062;-37
2023/08/17 09:23:21;;;;;;;8.60;3.00;;;;;;;18.45;100.00;101961.81;5075029;28;20107;-37
2023/08/17 09:25:47;;;;;;;;;;;;;;;18.58;100.00;101975.09;5076316;28;20085;-37
2023/08/17 09:28:14;;;;;;;5.03;2.90;;;;;;;18.52;100.00;101971.47;5075501;28;19973;-37
2023/08/17 09:30:57;;;;;;;4.32;2.40;;;;;;;18.53;100.00;101964.06;5074832;28;20031;-37
2023/08/17 09:33:25;;;;;;;7.03;2.85;;;;;;;18.41;100.00;101964.22;5074840;28;20021;-37
2023/08/17 09:35:51;;;;;;;6.15;3.05;;;;;;;18.41;100.00;101964.22;5075573;28;20353;-37
2023/08/17 09:38:18;;;;;;;5.78;2.97;;;;;;;18.37;100.00;101960.34;5075237;28;20021;-37
2023/08/17 09:40:43;;;;;;;11.70;3.97;;;;;;;18.26;100.00;101966.78;5074669;28;20036;-37
2023/08/17 09:43:09;;;;;;;;;;;;;;;18.43;100.00;101964.78;5074297;28;20029;-37
2023/08/17 09:45:37;;;;;;;7.95;3.45;;;;;;;18.38;100.00;101962.00;5074553;28;19904;-37
2023/08/17 09:48:03;;;;;;;7.80;3.60;;;;;;;18.31;100.00;101955.91;5074851;28;20016;-37
2023/08/17 09:50:29;;;;;;;;;;;;;;;18.49;100.00;101946.50;5075115;28;20353;-37
2023/08/17 09:52:55;;;;;;;7.70;3.10;;;;;;;18.52;100.00;101946.00;5074743;28;19904;-37
2023/08/17 09:55:22;;;;;;;7.60;3.30;;;;;;;18.69;100.00;101952.25;5075208;28;20353;-37
2023/08/17 09:57:50;;;;;;;8.68;3.10;;;;;;;18.79;100.00;101951.53;5074352;28;20024;-37
2023/08/17 10:00:16;;;;;;;8.45;3.20;;;;;;;18.83;100.00;101946.31;5075395;28;20391;-37
2023/08/17 10:02:42;;;;;;;;;;;;;;;18.92;100.00;101947.50;5074685;28;20032;-37
2023/08/17 10:05:11;;;;;;;5.85;3.35;;;;;;;18.92;100.00;101945.59;5074191;28;19927;-37
2023/08/17 10:07:40;;;;;;;6.65;3.35;;;;;;;18.87;100.00;101937.34;5075057;28;20401;-37
2023/08/17 10:10:07;;;;;;;5.78;3.35;;;;;;;19.00;100.00;101936.09;5073881;28;20028;-37
2023/08/17 10:12:39;;;;;;;6.20;3.63;;;;;;;19.00;100.00;101928.69;5074309;28;20140;-37
2023/08/17 10:15:11;;;;;;;8.13;4.28;;;;;;;18.89;100.00;101937.91;5074847;28;20020;-38
2023/08/17 10:18:14;;;;;;;8.18;4.20;;;;;;;18.95;100.00;101938.78;5074480;28;20023;-37
2023/08/17 10:20:43;;;;;;;6.82;3.28;;;;;;;19.04;100.00;101927.09;5073922;28;20377;-37
2023/08/17 10:23:20;;;;;;;6.75;3.30;;;;;;;19.12;100.00;101925.75;5073964;28;20082;-37
2023/08/17 10:25:47;;;;;;;6.72;3.08;;;;;;;19.16;100.00;101913.19;5074739;28;20103;-37
2023/08/17 10:28:13;;;;;;;6.38;3.20;;;;;;;19.24;100.00;101922.84;5074494;28;20028;-37
2023/08/17 10:30:39;;;;;;;;;;;;;;;19.37;100.00;101925.13;5074245;28;20027;-37
2023/08/17 10:33:06;;;;;;;8.35;3.72;;;;;;;19.09;100.00;101912.59;5074089;28;20402;-37
2023/08/17 10:35:33;;;;;;;9.50;3.53;;;;;;;19.08;100.00;101910.94;5073716;28;20028;-37
2023/08/17 10:37:59;;;;;;;6.60;3.10;;;;;;;19.25;100.00;101922.56;5074510;28;20032;-37
2023/08/17 10:40:28;;;;;;;;;;;;;;;19.34;100.00;101920.19;5074101;28;20016;-37
2023/08/17 10:42:55;;;;;;;6.75;3.28;;;;;;;19.18;100.00;101910.16;5073953;28;19940;-37
2023/08/17 10:45:35;;;;;;;7.03;3.25;;;;;;;19.32;100.00;101927.00;5073316;28;20025;-37
2023/08/17 10:48:06;;;;;;;5.60;3.38;;;;;;;19.18;100.00;101927.47;5074204;28;20025;-37
2023/08/17 10:50:35;;;;;;;7.72;3.58;;;;;;;19.19;100.00;101931.84;5074396;28;20020;-37
2023/08/17 10:53:12;;;;;;;8.18;4.35;;;;;;;19.10;100.00;101921.63;5073569;28;20043;-37
2023/08/17 10:55:40;;;;;;;7.20;3.88;;;;;;;19.10;100.00;101925.19;5073750;28;20449;-37
2023/08/17 10:58:08;;;;;;;9.50;4.45;;;;;;;18.88;100.00;101917.06;5073623;28;20032;-37
2023/08/17 11:00:38;;;;;;;8.07;3.92;;;;;;;19.05;100.00;101930.66;5074403;28;20036;-37
2023/08/17 11:03:05;;;;;;;7.22;3.58;;;;;;;18.99;100.00;101928.97;5074037;28;20025;-37
2023/08/17 11:05:49;;;;;;;6.00;3.50;;;;;;;19.14;100.00;101931.00;5073229;28;20163;-37
2023/08/17 11:08:22;;;;;;;6.68;3.67;;;;;;;19.04;100.00;101926.25;5074230;28;20028;-37
2023/08/17 11:11:01;;;;;;;12.23;5.20;;;;;;;19.01;100.00;101933.06;5074258;28;20391;-37
2023/08/17 11:13:31;;;;;;;9.13;4.25;;;;;;;18.97;100.00;101931.94;5073972;28;20024;-37
2023/08/17 11:15:58;;;;;;;10.95;4.32;;;;;;;19.01;100.00;101929.50;5073024;28;20108;-37
2023/08/17 11:18:24;;;;;;;6.57;4.15;;;;;;;19.00;100.00;101927.88;5073166;28;20038;-37
2023/08/17 11:20:49;;;;;;;;;;;;;;;19.17;100.00;101930.44;5073677;28;20028;-37
2023/08/17 11:23:15;;;;;;;7.35;4.30;;;;;;;19.17;100.00;101931.28;5073563;28;20007;-37
2023/08/17 11:25:41;;;;;;;8.25;4.63;;;;;;;19.21;100.00;101929.66;5073802;28;20353;-37
2023/08/17 11:28:11;;;;;;;8.55;4.78;;;;;;;19.21;100.00;101928.84;5073344;28;20028;-37
2023/08/17 11:30:38;;;;;;;9.30;4.93;;;;;;;19.17;100.00;101922.22;5073475;28;20414;-37
2023/08/17 11:33:05;;;;;;;9.65;5.10;;;;;;;18.89;100.00;101935.19;5072916;28;20028;-37
2023/08/17 11:35:30;;;;;;;8.60;4.93;;;;;;;18.87;100.00;101933.75;5072883;28;20029;-37